Time;durP1;ratioP1;P1;durP2;ratioP2;P2;SDS_P1;SDS_P2;PMS_P1;PMS_P2;Temp;Humidity;BMP_temperature;BMP_pressure;BME280_temperature;BME280_humidity;BME280_pressure;Samples;Min_cycle;Max_cycle;Signal;HPM_P1;HPM_P2
2022/07/25 00:00:09;;;;;;;11.70;10.80;;;30.50;44.60;;;;;;5019844;28;20807;-44
2022/07/25 00:02:35;;;;;;;11.70;10.70;;;30.40;45.00;;;;;;5027177;28;20281;-44
2022/07/25 00:05:00;;;;;;;13.07;11.97;;;30.30;45.20;;;;;;5022849;28;20446;-44
2022/07/25 00:07:26;;;;;;;12.70;11.60;;;30.20;45.40;;;;;;5029166;28;20469;-45
2022/07/25 00:09:52;;;;;;;11.33;10.40;;;30.20;45.30;;;;;;5026485;28;20189;-44
2022/07/25 00:12:19;;;;;;;12.10;11.20;;;30.00;46.00;;;;;;5027784;28;20448;-44
2022/07/25 00:14:44;;;;;;;12.40;11.20;;;30.00;46.00;;;;;;5023510;28;20267;-44
2022/07/25 00:17:10;;;;;;;14.00;12.90;;;30.00;46.10;;;;;;5024933;28;20926;-43
2022/07/25 00:19:36;;;;;;;13.27;12.17;;;29.90;46.20;;;;;;5028281;28;20225;-44
2022/07/25 00:22:02;;;;;;;12.37;11.40;;;29.80;46.40;;;;;;5029553;28;20503;-47
2022/07/25 00:24:28;;;;;;;12.00;11.10;;;29.90;46.30;;;;;;5023433;28;20487;-43
2022/07/25 00:26:53;;;;;;;13.40;12.23;;;29.90;46.20;;;;;;5025138;28;21005;-44
2022/07/25 00:29:19;;;;;;;12.20;11.10;;;29.90;46.40;;;;;;5023656;28;20256;-44
2022/07/25 00:31:45;;;;;;;12.50;11.50;;;29.90;46.30;;;;;;5028202;28;20209;-44
2022/07/25 00:34:10;;;;;;;11.83;10.83;;;30.00;46.10;;;;;;5026674;28;20698;-46
2022/07/25 00:36:36;;;;;;;12.47;11.37;;;30.00;45.90;;;;;;5023612;28;20232;-44
2022/07/25 00:39:03;;;;;;;14.50;10.20;;;30.10;45.80;;;;;;5029093;28;20229;-43
2022/07/25 00:41:28;;;;;;;13.40;12.10;;;30.10;45.70;;;;;;5021370;28;20208;-44
2022/07/25 00:43:54;;;;;;;12.40;11.40;;;30.10;45.80;;;;;;5024119;28;20932;-43
2022/07/25 00:46:20;;;;;;;12.80;11.90;;;30.00;45.90;;;;;;5024420;28;20221;-44
2022/07/25 00:48:45;;;;;;;12.57;11.57;;;30.00;46.60;;;;;;5027439;28;20205;-43
2022/07/25 00:51:11;;;;;;;13.90;12.70;;;29.90;46.20;;;;;;5029055;28;20205;-43
2022/07/25 00:53:38;;;;;;;12.30;11.30;;;29.90;46.20;;;;;;5023530;28;20675;-43
2022/07/25 00:56:05;;;;;;;13.60;12.50;;;29.90;46.10;;;;;;5021290;28;20194;-43
2022/07/25 00:58:31;;;;;;;11.97;11.07;;;29.90;46.10;;;;;;5025337;28;20578;-43
2022/07/25 01:00:58;;;;;;;13.57;12.37;;;29.90;46.00;;;;;;5026431;28;20919;-43
2022/07/25 01:03:24;;;;;;;12.40;11.40;;;29.90;46.00;;;;;;5019778;28;20818;-44
2022/07/25 01:05:50;;;;;;;12.63;11.57;;;29.90;45.90;;;;;;5026984;28;20441;-43
2022/07/25 01:08:20;;;;;;;13.10;12.00;;;29.90;45.80;;;;;;5022132;28;20205;-47
2022/07/25 01:10:47;;;;;;;11.80;10.80;;;29.90;45.70;;;;;;5021152;28;20221;-44
2022/07/25 01:13:12;;;;;;;11.40;10.33;;;29.90;45.80;;;;;;5024559;28;20454;-44
2022/07/25 01:15:39;;;;;;;12.10;11.17;;;29.80;46.10;;;;;;5029355;28;20436;-44
2022/07/25 01:18:04;;;;;;;12.40;10.90;;;29.80;46.00;;;;;;5014790;28;20189;-44
2022/07/25 01:20:31;;;;;;;12.83;11.53;;;29.80;46.10;;;;;;5023634;28;20450;-43
2022/07/25 01:22:58;;;;;;;12.30;11.30;;;29.90;46.00;;;;;;5026782;28;20196;-44
2022/07/25 01:25:24;;;;;;;13.10;11.90;;;29.90;45.80;;;;;;5029163;28;20459;-43
2022/07/25 01:27:52;;;;;;;12.53;11.43;;;29.80;46.00;;;;;;5028287;28;20435;-44
2022/07/25 01:30:18;;;;;;;12.43;11.50;;;29.70;46.10;;;;;;5019383;28;20476;-44
2022/07/25 01:32:44;;;;;;;13.00;11.80;;;29.70;46.20;;;;;;5026055;28;20959;-44
2022/07/25 01:35:11;;;;;;;13.30;12.20;;;29.70;46.20;;;;;;5020356;28;20440;-43
2022/07/25 01:37:37;;;;;;;12.67;11.47;;;29.60;46.30;;;;;;5019715;28;20624;-43
2022/07/25 01:40:04;;;;;;;10.70;9.90;;;29.60;46.50;;;;;;5019387;28;20854;-43
2022/07/25 01:42:30;;;;;;;12.53;11.43;;;29.60;46.30;;;;;;5024069;28;20439;-44
2022/07/25 01:44:56;;;;;;;12.93;11.17;;;29.50;46.80;;;;;;5022190;28;20452;-43
2022/07/25 01:47:21;;;;;;;11.60;10.70;;;29.50;46.60;;;;;;5027000;28;20193;-43
2022/07/25 01:49:47;;;;;;;12.63;11.63;;;29.40;46.80;;;;;;5028763;28;20189;-44
2022/07/25 01:52:13;;;;;;;11.77;10.87;;;29.30;47.00;;;;;;5019855;28;20283;-44
2022/07/25 01:54:39;;;;;;;12.90;11.87;;;29.00;47.40;;;;;;5027200;28;20222;-45
2022/07/25 01:57:05;;;;;;;12.10;11.10;;;29.10;47.40;;;;;;5023350;28;20194;-44
2022/07/25 01:59:31;;;;;;;12.90;11.83;;;28.80;47.80;;;;;;5018272;28;20565;-43
2022/07/25 02:01:57;;;;;;;12.43;11.43;;;28.90;47.80;;;;;;5025900;28;20943;-44
2022/07/25 02:04:22;;;;;;;12.87;11.67;;;28.90;47.50;;;;;;5021178;28;20194;-43
2022/07/25 02:06:48;;;;;;;13.33;11.80;;;28.60;48.90;;;;;;5031754;28;20220;-43
2022/07/25 02:09:14;;;;;;;12.30;11.10;;;28.40;48.50;;;;;;5027624;28;20189;-44
2022/07/25 02:11:39;;;;;;;12.47;11.27;;;28.50;48.40;;;;;;5026501;28;20282;-44
2022/07/25 02:14:05;;;;;;;12.47;11.37;;;28.60;48.00;;;;;;5025856;28;20224;-43
2022/07/25 02:16:31;;;;;;;12.13;11.23;;;28.60;48.10;;;;;;5030653;28;20208;-44
2022/07/25 02:18:56;;;;;;;11.47;10.57;;;28.70;47.90;;;;;;5021830;28;20230;-43
2022/07/25 02:21:22;;;;;;;12.80;11.70;;;28.80;47.70;;;;;;5023239;28;20209;-44
2022/07/25 02:23:47;;;;;;;11.87;10.87;;;28.80;47.60;;;;;;5025835;28;20598;-43
2022/07/25 02:26:13;;;;;;;12.40;11.30;;;28.80;47.50;;;;;;5030091;28;20285;-44
2022/07/25 02:28:39;;;;;;;12.10;11.10;;;28.80;47.30;;;;;;5019535;28;20201;-44
2022/07/25 02:31:05;;;;;;;13.30;12.20;;;28.90;47.30;;;;;;5030922;28;20911;-43
2022/07/25 02:33:31;;;;;;;11.70;10.80;;;28.90;47.20;;;;;;5030340;28;20446;-44
2022/07/25 02:35:56;;;;;;;11.90;11.00;;;28.80;47.50;;;;;;5026901;28;20273;-43
2022/07/25 02:38:22;;;;;;;12.30;11.17;;;28.80;47.50;;;;;;5029318;28;20318;-43
2022/07/25 02:40:49;;;;;;;12.10;11.00;;;28.80;47.40;;;;;;5028666;28;20676;-43
2022/07/25 02:43:16;;;;;;;12.30;11.40;;;28.80;47.50;;;;;;5027709;28;20224;-43
2022/07/25 02:45:42;;;;;;;13.00;11.90;;;28.80;47.60;;;;;;5030595;28;20439;-44
2022/07/25 02:48:07;;;;;;;12.73;11.73;;;28.70;47.70;;;;;;5030652;28;20447;-43
2022/07/25 02:50:34;;;;;;;12.87;11.70;;;28.40;48.40;;;;;;5030937;28;20193;-44
2022/07/25 02:52:59;;;;;;;12.57;11.50;;;28.50;48.30;;;;;;5029277;28;20268;-43
2022/07/25 02:55:25;;;;;;;12.27;11.03;;;28.50;48.10;;;;;;5025298;28;21006;-44
2022/07/25 02:57:51;;;;;;;13.10;12.07;;;28.50;48.10;;;;;;5023226;28;20236;-43
2022/07/25 03:00:17;;;;;;;12.23;11.23;;;28.60;48.00;;;;;;5027605;28;20194;-44
2022/07/25 03:02:42;;;;;;;12.90;11.90;;;28.60;48.00;;;;;;5020835;28;20307;-44
2022/07/25 03:05:13;;;;;;;12.67;11.47;;;28.60;47.90;;;;;;5019524;28;20442;-44
2022/07/25 03:07:40;;;;;;;12.30;11.30;;;28.60;47.90;;;;;;5030207;28;20224;-43
2022/07/25 03:10:07;;;;;;;13.27;12.07;;;28.60;47.90;;;;;;5020639;28;20444;-43
2022/07/25 03:12:34;;;;;;;12.93;11.83;;;28.50;48.30;;;;;;5022269;28;20984;-44
2022/07/25 03:15:01;;;;;;;12.43;11.33;;;28.50;48.20;;;;;;5021264;28;20440;-44
2022/07/25 03:17:27;;;;;;;13.07;12.07;;;28.50;48.90;;;;;;5028242;28;20440;-43
2022/07/25 03:19:54;;;;;;;13.50;12.30;;;28.50;48.30;;;;;;5024416;28;20498;-45
2022/07/25 03:22:19;;;;;;;12.43;11.23;;;28.50;48.20;;;;;;5018628;28;20506;-44
2022/07/25 03:24:45;;;;;;;12.27;11.10;;;28.50;48.10;;;;;;5023261;28;20444;-43
2022/07/25 03:27:11;;;;;;;12.87;11.77;;;28.50;48.10;;;;;;5028819;28;20185;-43
2022/07/25 03:29:36;;;;;;;12.30;11.30;;;28.50;48.10;;;;;;5024777;28;20205;-43
2022/07/25 03:32:03;;;;;;;12.33;11.00;;;28.40;48.00;;;;;;5026257;28;20224;-44
2022/07/25 03:34:28;;;;;;;12.43;11.33;;;28.50;48.00;;;;;;5029465;28;20206;-44
2022/07/25 03:36:54;;;;;;;12.17;11.07;;;28.50;47.80;;;;;;5018637;28;21072;-44
2022/07/25 03:39:20;;;;;;;11.87;10.87;;;28.40;47.80;;;;;;5023294;28;20222;-43
2022/07/25 03:41:46;;;;;;;12.40;11.20;;;28.40;47.70;;;;;;5016896;28;20673;-44
2022/07/25 03:44:12;;;;;;;11.13;10.23;;;28.40;47.70;;;;;;5024124;28;20680;-43
2022/07/25 03:46:38;;;;;;;11.00;10.10;;;28.40;48.30;;;;;;5019037;28;20450;-43
2022/07/25 03:49:04;;;;;;;11.23;10.33;;;28.40;47.80;;;;;;5027050;28;20451;-44
2022/07/25 03:51:30;;;;;;;12.50;11.43;;;28.40;47.90;;;;;;5005134;28;20205;-44
2022/07/25 03:54:01;;;;;;;13.80;11.70;;;28.20;48.10;;;;;;5021592;28;20284;-44
2022/07/25 03:56:32;;;;;;;11.97;11.07;;;28.20;48.20;;;;;;5022763;28;20637;-44
2022/07/25 03:58:57;;;;;;;12.73;11.60;;;28.20;48.40;;;;;;5028145;28;20487;-43
2022/07/25 04:01:23;;;;;;;13.43;12.23;;;28.20;48.30;;;;;;5029732;28;20505;-43
2022/07/25 04:03:49;;;;;;;13.70;12.60;;;28.30;48.20;;;;;;5027996;28;20211;-43
2022/07/25 04:06:14;;;;;;;12.67;11.67;;;28.30;48.20;;;;;;5028756;28;20189;-45
2022/07/25 04:08:40;;;;;;;12.33;11.20;;;28.30;48.10;;;;;;5018441;28;20221;-47
2022/07/25 04:11:06;;;;;;;12.20;11.10;;;28.30;48.30;;;;;;5029576;28;20199;-43
2022/07/25 04:13:32;;;;;;;12.80;11.80;;;28.30;48.20;;;;;;5021498;28;20206;-44
2022/07/25 04:15:57;;;;;;;12.20;11.30;;;28.30;48.30;;;;;;5030251;28;20197;-43
2022/07/25 04:18:23;;;;;;;13.00;11.93;;;28.30;48.20;;;;;;5016493;28;20235;-47
2022/07/25 04:20:49;;;;;;;12.43;11.23;;;28.30;48.30;;;;;;5027931;28;20201;-44
2022/07/25 04:23:14;;;;;;;11.67;10.77;;;28.30;48.00;;;;;;5010401;28;20201;-46
2022/07/25 04:25:40;;;;;;;13.13;12.10;;;28.40;47.90;;;;;;5028278;28;20205;-47
2022/07/25 04:28:06;;;;;;;11.77;10.87;;;28.30;48.30;;;;;;5026720;28;20185;-43
2022/07/25 04:30:31;;;;;;;13.10;12.10;;;28.30;48.50;;;;;;5029439;28;20251;-48
2022/07/25 04:32:57;;;;;;;12.10;11.20;;;28.30;48.50;;;;;;5019006;28;20992;-46
2022/07/25 04:35:22;;;;;;;12.20;11.30;;;28.30;48.50;;;;;;5015885;28;20186;-43
2022/07/25 04:37:48;;;;;;;12.90;11.90;;;28.20;48.40;;;;;;5019047;28;20334;-43
2022/07/25 04:40:14;;;;;;;11.97;10.97;;;28.20;48.60;;;;;;5026218;28;20646;-47
2022/07/25 04:42:39;;;;;;;12.00;11.00;;;28.10;48.90;;;;;;5028146;28;20667;-44
2022/07/25 04:45:05;;;;;;;13.20;12.13;;;28.00;48.90;;;;;;5029084;28;20247;-43
2022/07/25 04:47:31;;;;;;;11.63;10.73;;;28.10;48.90;;;;;;5021534;28;20198;-45
2022/07/25 04:49:57;;;;;;;12.93;11.90;;;28.20;48.60;;;;;;5011007;28;20444;-43
2022/07/25 04:52:22;;;;;;;12.87;11.63;;;28.10;48.90;;;;;;5016822;28;20197;-44
2022/07/25 04:54:48;;;;;;;12.50;10.87;;;28.10;48.90;;;;;;5026335;28;20247;-44
2022/07/25 04:57:13;;;;;;;12.70;11.50;;;28.20;48.70;;;;;;5026946;28;20226;-45
2022/07/25 04:59:39;;;;;;;12.23;11.33;;;28.20;48.40;;;;;;5026820;28;20224;-43
2022/07/25 05:02:05;;;;;;;11.70;10.80;;;28.30;48.30;;;;;;5022757;28;20185;-43
2022/07/25 05:04:30;;;;;;;13.30;12.03;;;28.40;48.10;;;;;;5020819;28;20197;-43
2022/07/25 05:06:56;;;;;;;13.97;12.77;;;28.40;48.20;;;;;;5025304;28;20193;-43
2022/07/25 05:09:22;;;;;;;12.03;11.03;;;28.10;48.90;;;;;;5020014;28;20198;-43
2022/07/25 05:11:47;;;;;;;12.93;11.70;;;28.00;49.00;;;;;;5025047;28;20201;-44
2022/07/25 05:14:13;;;;;;;12.87;11.70;;;27.80;49.60;;;;;;5024122;28;20942;-43
2022/07/25 05:16:38;;;;;;;12.27;11.33;;;27.80;49.70;;;;;;5024375;28;20189;-43
2022/07/25 05:19:04;;;;;;;13.17;12.00;;;28.00;49.30;;;;;;5024815;28;20692;-44
2022/07/25 05:21:31;;;;;;;12.63;11.43;;;27.90;49.40;;;;;;5017338;28;20194;-43
2022/07/25 05:23:56;;;;;;;13.37;12.17;;;27.90;49.30;;;;;;5016903;28;20252;-43
2022/07/25 05:26:22;;;;;;;12.30;11.30;;;28.00;49.20;;;;;;5023835;28;20998;-43
2022/07/25 05:28:47;;;;;;;13.20;11.60;;;28.10;49.00;;;;;;5023071;28;20241;-43
2022/07/25 05:31:13;;;;;;;12.13;11.20;;;28.20;48.90;;;;;;5020251;28;20259;-43
2022/07/25 05:33:39;;;;;;;11.90;10.80;;;28.40;48.70;;;;;;5032442;28;20277;-43
2022/07/25 05:36:05;;;;;;;12.90;11.80;;;28.50;48.50;;;;;;5030968;28;20225;-43
2022/07/25 05:38:30;;;;;;;12.03;10.87;;;28.60;48.30;;;;;;5025511;28;20273;-43
2022/07/25 05:40:56;;;;;;;11.07;10.27;;;28.70;48.20;;;;;;5031093;28;20926;-43
2022/07/25 05:43:22;;;;;;;11.63;10.43;;;28.80;48.00;;;;;;5029116;28;20200;-43
2022/07/25 05:45:47;;;;;;;13.30;12.07;;;28.80;47.90;;;;;;5031123;28;20189;-43
2022/07/25 05:48:14;;;;;;;12.20;11.03;;;28.80;47.90;;;;;;5031742;28;20194;-43
2022/07/25 05:50:40;;;;;;;11.43;10.50;;;28.80;48.30;;;;;;5028983;28;20288;-45
2022/07/25 05:53:06;;;;;;;11.90;11.03;;;28.80;48.30;;;;;;5028091;28;20513;-45
2022/07/25 05:55:31;;;;;;;12.27;11.37;;;28.90;48.10;;;;;;5035830;28;20988;-44
2022/07/25 05:57:57;;;;;;;11.60;10.70;;;28.90;47.80;;;;;;5031858;28;20439;-44
2022/07/25 06:00:23;;;;;;;12.13;11.10;;;29.00;47.70;;;;;;5031919;28;20197;-43
2022/07/25 06:02:48;;;;;;;11.20;10.40;;;28.90;47.90;;;;;;5032917;28;20201;-43
2022/07/25 06:05:14;;;;;;;12.07;11.07;;;29.00;48.10;;;;;;5033451;28;20710;-45
2022/07/25 06:07:40;;;;;;;12.60;11.60;;;29.10;47.70;;;;;;5038286;28;20197;-46
2022/07/25 06:10:06;;;;;;;11.03;10.20;;;29.10;48.10;;;;;;5029192;28;20186;-44
2022/07/25 06:12:34;;;;;;;13.33;12.23;;;28.50;48.90;;;;;;5030473;28;20506;-44
2022/07/25 06:15:00;;;;;;;11.50;10.60;;;28.00;50.40;;;;;;5030832;28;20942;-44
2022/07/25 06:17:26;;;;;;;11.50;10.60;;;27.90;50.90;;;;;;5024532;28;20436;-44
2022/07/25 06:19:51;;;;;;;11.40;10.53;;;27.80;51.10;;;;;;5030689;28;20229;-44
2022/07/25 06:22:18;;;;;;;11.20;10.20;;;27.60;51.50;;;;;;5037991;28;20244;-44
2022/07/25 06:24:44;;;;;;;11.73;10.60;;;27.70;51.80;;;;;;5031484;28;20197;-44
2022/07/25 06:27:10;;;;;;;12.63;11.47;;;27.90;51.70;;;;;;5031705;28;20452;-43
2022/07/25 06:29:37;;;;;;;12.00;11.00;;;27.70;51.10;;;;;;5031565;28;20232;-44
2022/07/25 06:32:03;;;;;;;11.97;11.07;;;27.60;51.70;;;;;;5035800;28;20675;-45
2022/07/25 06:34:28;;;;;;;11.37;10.47;;;27.60;51.90;;;;;;5031960;28;20427;-44
2022/07/25 06:36:56;;;;;;;11.70;10.70;;;27.70;51.90;;;;;;5031636;28;20232;-43
2022/07/25 06:39:22;;;;;;;11.10;10.20;;;27.90;51.70;;;;;;5026955;28;20236;-44
2022/07/25 06:41:47;;;;;;;14.23;12.40;;;28.20;50.90;;;;;;5033651;28;20813;-44
2022/07/25 06:44:13;;;;;;;14.00;12.60;;;28.30;50.40;;;;;;5021696;28;20435;-43
2022/07/25 06:46:39;;;;;;;13.20;12.03;;;28.50;50.10;;;;;;5031128;28;20657;-43
2022/07/25 06:49:04;;;;;;;10.20;9.50;;;28.70;49.50;;;;;;5030567;28;20193;-43
2022/07/25 06:51:30;;;;;;;10.73;9.83;;;28.80;49.40;;;;;;5031893;28;20197;-45
2022/07/25 06:53:56;;;;;;;11.77;10.57;;;28.80;49.00;;;;;;5031785;28;20197;-44
2022/07/25 06:56:21;;;;;;;9.90;9.10;;;29.20;48.50;;;;;;5030642;28;20197;-44
2022/07/25 06:58:47;;;;;;;12.10;11.20;;;29.40;48.10;;;;;;5034146;28;20228;-43
2022/07/25 07:01:13;;;;;;;11.20;10.20;;;29.40;47.90;;;;;;5035823;28;20185;-43
2022/07/25 07:03:39;;;;;;;12.33;11.43;;;29.80;47.60;;;;;;5031713;28;20254;-44
2022/07/25 07:06:06;;;;;;;11.20;10.40;;;29.90;47.10;;;;;;5027785;28;20563;-45
2022/07/25 07:08:32;;;;;;;11.03;10.13;;;29.90;47.00;;;;;;5031114;28;20448;-44
2022/07/25 07:10:58;;;;;;;11.90;10.87;;;30.20;46.50;;;;;;5032295;28;20428;-44
2022/07/25 07:13:24;;;;;;;10.57;9.77;;;30.00;46.30;;;;;;5030188;28;20531;-45
2022/07/25 07:15:50;;;;;;;12.07;11.00;;;30.00;46.10;;;;;;5030149;28;20186;-45
2022/07/25 07:18:17;;;;;;;11.80;10.90;;;30.00;46.90;;;;;;5021961;28;20909;-45
2022/07/25 07:20:43;;;;;;;11.57;10.67;;;29.80;46.30;;;;;;5027919;28;20448;-44
2022/07/25 07:23:09;;;;;;;12.40;11.27;;;29.80;46.70;;;;;;5028499;28;20436;-45
2022/07/25 07:25:34;;;;;;;11.50;10.70;;;30.10;46.70;;;;;;5026373;28;20517;-45
2022/07/25 07:28:00;;;;;;;11.77;10.77;;;30.50;45.90;;;;;;5028772;28;20197;-45
2022/07/25 07:30:26;;;;;;;12.00;11.00;;;30.60;45.70;;;;;;5033042;28;20244;-45
2022/07/25 07:32:52;;;;;;;12.00;11.10;;;30.90;45.60;;;;;;5027508;28;20896;-45
2022/07/25 07:35:18;;;;;;;11.67;10.77;;;31.10;45.20;;;;;;5025621;28;20665;-42
2022/07/25 07:37:45;;;;;;;10.87;10.07;;;31.20;45.10;;;;;;5029632;28;20938;-43
2022/07/25 07:40:14;;;;;;;12.10;11.20;;;31.40;44.70;;;;;;5032351;28;20491;-42
2022/07/25 07:42:43;;;;;;;11.17;10.37;;;31.60;43.70;;;;;;5031293;28;20963;-42
2022/07/25 07:45:19;;;;;;;11.20;10.40;;;31.70;43.60;;;;;;5021323;28;20437;-44
2022/07/25 07:47:47;;;;;;;11.27;10.37;;;32.10;42.80;;;;;;5029327;28;20489;-42
2022/07/25 07:50:17;;;;;;;10.73;9.87;;;32.30;40.60;;;;;;5029798;28;20452;-43
2022/07/25 07:52:44;;;;;;;10.73;9.93;;;32.40;39.90;;;;;;5028447;28;20440;-43
2022/07/25 07:57:55;;;;;;;10.70;9.90;;;32.70;39.20;;;;;;5033538;28;20531;-45
2022/07/25 08:00:21;;;;;;;10.50;9.70;;;32.80;39.10;;;;;;5029545;28;20578;-42
2022/07/25 08:02:49;;;;;;;11.20;10.30;;;32.70;39.30;;;;;;5024766;28;20955;-41
2022/07/25 08:05:27;;;;;;;10.77;9.97;;;32.80;39.10;;;;;;5030719;28;20455;-42
2022/07/25 08:07:53;;;;;;;10.73;10.00;;;33.00;38.80;;;;;;5027029;28;20463;-43
2022/07/25 08:10:24;;;;;;;12.13;11.23;;;33.10;38.70;;;;;;5032675;28;20447;-43
2022/07/25 08:12:50;;;;;;;10.73;9.87;;;33.30;38.30;;;;;;5027602;28;20442;-42
2022/07/25 08:15:17;;;;;;;11.37;10.37;;;33.60;38.10;;;;;;5030713;28;20811;-42
2022/07/25 08:17:44;;;;;;;11.80;10.90;;;33.70;37.80;;;;;;5023677;28;20716;-43
2022/07/25 08:20:11;;;;;;;10.60;9.80;;;33.80;38.10;;;;;;5027365;28;20857;-42
2022/07/25 08:22:42;;;;;;;10.63;9.53;;;33.90;37.80;;;;;;5036340;28;20452;-43
2022/07/25 08:25:11;;;;;;;10.90;10.10;;;34.00;37.40;;;;;;5030434;28;20478;-42
2022/07/25 08:27:37;;;;;;;11.50;10.60;;;33.90;37.80;;;;;;5025160;28;20443;-42
2022/07/25 08:30:05;;;;;;;11.40;10.30;;;34.00;37.80;;;;;;5013204;28;20437;-43
2022/07/25 08:32:30;;;;;;;11.20;10.30;;;34.00;37.70;;;;;;5025808;28;20205;-43
2022/07/25 08:34:56;;;;;;;11.57;10.60;;;34.30;37.30;;;;;;5024830;28;20444;-43
2022/07/25 08:37:22;;;;;;;12.10;11.20;;;34.60;37.20;;;;;;5026174;28;20239;-43
2022/07/25 08:39:50;;;;;;;11.60;10.77;;;34.80;36.60;;;;;;5019513;28;20727;-43
2022/07/25 08:42:18;;;;;;;11.60;10.70;;;35.00;36.20;;;;;;5030073;28;20444;-44
2022/07/25 08:44:58;;;;;;;13.20;12.10;;;34.70;36.80;;;;;;5032684;28;20444;-43
2022/07/25 08:47:24;;;;;;;11.97;11.07;;;34.80;36.60;;;;;;5027419;28;20447;-42
2022/07/25 08:49:50;;;;;;;11.80;10.90;;;35.10;36.10;;;;;;5016192;28;21144;-42
2022/07/25 08:52:17;;;;;;;12.30;11.30;;;35.40;35.80;;;;;;5028050;28;20193;-43
2022/07/25 08:54:45;;;;;;;12.90;11.80;;;35.50;35.70;;;;;;5014279;28;20502;-43
2022/07/25 08:57:10;;;;;;;11.57;10.77;;;35.60;35.60;;;;;;5021023;28;21027;-43
2022/07/25 08:59:36;;;;;;;12.00;10.90;;;35.60;35.00;;;;;;5014870;28;20580;-43
2022/07/25 09:02:05;;;;;;;10.60;9.80;;;35.60;34.90;;;;;;5019243;28;20201;-43
2022/07/25 09:04:33;;;;;;;11.30;10.40;;;35.70;35.10;;;;;;5024226;28;20200;-43
2022/07/25 09:07:00;;;;;;;14.17;11.57;;;35.70;35.20;;;;;;5029037;28;20463;-44
2022/07/25 09:09:35;;;;;;;12.47;11.47;;;35.80;35.20;;;;;;5023804;28;20449;-44
2022/07/25 09:12:01;;;;;;;11.97;11.00;;;35.90;34.90;;;;;;5025720;28;20537;-43
2022/07/25 09:14:28;;;;;;;12.87;11.57;;;36.00;34.80;;;;;;5028278;28;20436;-43
2022/07/25 09:16:55;;;;;;;12.03;11.13;;;36.10;34.70;;;;;;5028347;28;20193;-42
2022/07/25 09:19:22;;;;;;;11.97;11.07;;;36.30;34.60;;;;;;5032261;28;21280;-42
2022/07/25 09:22:05;;;;;;;11.40;10.50;;;36.30;35.20;;;;;;5031359;28;20876;-43
2022/07/25 09:24:31;;;;;;;12.10;11.10;;;36.40;34.80;;;;;;5028996;28;20447;-43
2022/07/25 09:26:59;;;;;;;13.60;12.60;;;36.60;34.00;;;;;;5023906;28;20814;-43
2022/07/25 09:29:26;;;;;;;12.30;11.40;;;36.70;33.70;;;;;;5032535;28;20947;-42
2022/07/25 09:31:53;;;;;;;11.97;11.13;;;36.90;34.00;;;;;;5030608;28;20446;-42
2022/07/25 09:34:49;;;;;;;13.23;11.90;;;37.00;33.70;;;;;;5033109;28;20443;-42
2022/07/25 09:37:17;;;;;;;12.03;11.13;;;37.10;33.20;;;;;;5016631;28;20479;-43
2022/07/25 09:39:46;;;;;;;11.93;11.03;;;37.10;33.00;;;;;;5021033;28;20511;-43
2022/07/25 09:42:21;;;;;;;12.77;11.60;;;37.20;33.60;;;;;;5022970;28;20493;-45
2022/07/25 09:45:11;;;;;;;11.77;10.80;;;37.30;33.70;;;;;;5022877;28;20453;-43
2022/07/25 09:47:58;;;;;;;12.53;11.47;;;37.50;32.80;;;;;;5030363;28;20462;-42
2022/07/25 09:50:26;;;;;;;12.00;11.10;;;37.70;32.50;;;;;;5031471;28;20450;-44
2022/07/25 09:52:54;;;;;;;11.67;10.77;;;37.80;32.70;;;;;;5027177;28;20489;-47
2022/07/25 09:55:20;;;;;;;12.67;11.70;;;37.80;31.80;;;;;;5025937;28;20446;-47
2022/07/25 09:57:47;;;;;;;13.07;11.90;;;38.00;31.50;;;;;;5029725;28;20838;-47
2022/07/25 10:00:17;;;;;;;12.77;11.80;;;38.10;30.50;;;;;;5025904;28;20629;-44
2022/07/25 10:03:11;;;;;;;12.67;11.73;;;38.30;30.20;;;;;;5014292;28;20436;-44
2022/07/25 10:05:55;;;;;;;12.57;11.77;;;38.40;30.20;;;;;;5015255;28;20478;-43
2022/07/25 10:08:22;;;;;;;12.87;11.80;;;38.50;30.00;;;;;;5026202;28;20483;-43
2022/07/25 10:10:48;;;;;;;12.90;11.90;;;38.50;30.10;;;;;;5026300;28;20443;-45
2022/07/25 10:13:27;;;;;;;12.47;11.57;;;38.50;29.50;;;;;;5030918;28;20485;-44
2022/07/25 10:15:53;;;;;;;12.20;11.07;;;38.50;29.70;;;;;;5031481;28;20201;-43
2022/07/25 10:18:21;;;;;;;13.77;12.50;;;38.70;30.00;;;;;;5034209;28;20976;-43
2022/07/25 10:20:49;;;;;;;13.60;12.37;;;39.00;30.00;;;;;;5028687;28;20203;-44
2022/07/25 10:23:18;;;;;;;12.87;11.90;;;39.20;29.40;;;;;;5028499;28;20493;-43
2022/07/25 10:25:44;;;;;;;12.10;11.20;;;39.30;29.10;;;;;;5032217;28;20451;-43
2022/07/25 10:28:11;;;;;;;11.30;10.50;;;39.50;28.80;;;;;;5030941;28;20927;-43
2022/07/25 10:30:39;;;;;;;12.40;11.27;;;39.80;29.20;;;;;;5028094;28;20686;-43
2022/07/25 10:33:14;;;;;;;11.23;10.53;;;39.80;28.30;;;;;;5032630;28;20449;-44
2022/07/25 10:35:40;;;;;;;11.47;10.57;;;40.00;28.10;;;;;;5037976;28;20505;-43
2022/07/25 10:38:06;;;;;;;10.73;9.90;;;40.10;27.40;;;;;;5029226;28;20540;-43
2022/07/25 10:40:42;;;;;;;11.27;10.37;;;39.90;27.10;;;;;;5032701;28;20478;-43
2022/07/25 10:43:11;;;;;;;10.33;9.53;;;39.90;26.70;;;;;;5027851;28;20207;-43
2022/07/25 10:45:39;;;;;;;10.67;9.77;;;39.90;27.40;;;;;;5034583;28;20447;-44
2022/07/25 10:48:19;;;;;;;9.90;9.10;;;39.50;28.40;;;;;;5028856;28;20526;-43
2022/07/25 10:50:51;;;;;;;10.93;10.20;;;39.50;26.90;;;;;;5032112;28;20451;-47
2022/07/25 10:53:32;;;;;;;10.60;9.80;;;40.00;27.30;;;;;;5035147;28;20902;-46
2022/07/25 10:56:18;;;;;;;10.47;9.57;;;40.60;26.80;;;;;;5033737;28;20452;-43
2022/07/25 10:58:47;;;;;;;9.93;9.23;;;41.10;26.10;;;;;;5030102;28;20491;-47
2022/07/25 11:01:18;;;;;;;10.43;9.60;;;41.40;25.50;;;;;;5031596;28;20473;-43
2022/07/25 11:03:43;;;;;;;11.23;10.43;;;41.50;24.80;;;;;;5029183;28;20205;-43
2022/07/25 11:06:11;;;;;;;11.55;10.65;;;41.60;24.70;;;;;;5058633;28;20446;-43
2022/07/25 11:08:36;;;;;;;11.35;9.85;;;41.80;24.60;;;;;;5031017;28;20196;-47
2022/07/25 11:11:02;;;;;;;11.30;10.38;;;42.00;24.50;;;;;;5031888;28;20287;-47
2022/07/25 11:13:28;;;;;;;10.05;9.45;;;42.40;24.30;;;;;;5031872;28;20207;-47
2022/07/25 11:15:57;;;;;;;10.88;10.18;;;42.60;24.30;;;;;;5030070;28;20195;-46
2022/07/25 11:18:35;;;;;;;11.32;10.43;;;42.60;23.80;;;;;;5036591;28;20199;-47
2022/07/25 11:21:02;;;;;;;10.93;10.13;;;42.70;24.20;;;;;;5029987;28;20204;-47
2022/07/25 11:23:28;;;;;;;10.40;9.70;;;42.70;23.70;;;;;;5028975;28;20275;-48
2022/07/25 11:26:23;;;;;;;10.73;10.02;;;43.00;23.70;;;;;;5030989;28;20295;-48
2022/07/25 11:28:49;;;;;;;10.47;9.73;;;43.10;23.50;;;;;;5016357;28;20224;-45
2022/07/25 11:31:17;;;;;;;10.27;9.57;;;43.20;23.40;;;;;;5031488;28;20225;-48
2022/07/25 11:33:46;;;;;;;10.18;9.45;;;43.30;23.60;;;;;;5033945;28;20204;-46
2022/07/25 11:36:13;;;;;;;11.18;10.48;;;43.30;23.50;;;;;;5019661;28;20589;-48
2022/07/25 11:38:39;;;;;;;11.50;10.60;;;43.20;23.20;;;;;;5025964;28;20235;-47
2022/07/25 11:41:06;;;;;;;10.55;9.60;;;43.20;23.20;;;;;;5028351;28;20200;-49
2022/07/25 11:43:32;;;;;;;10.35;9.70;;;43.30;23.60;;;;;;5033461;28;21019;-49
2022/07/25 11:46:01;;;;;;;10.48;8.70;;;43.30;23.30;;;;;;5027057;28;20212;-49
2022/07/25 11:48:36;;;;;;;10.45;9.75;;;43.40;23.80;;;;;;5028493;28;20196;-46
2022/07/25 11:51:16;;;;;;;10.65;9.85;;;43.60;23.50;;;;;;5020027;28;20762;-44
2022/07/25 11:53:45;;;;;;;10.48;9.65;;;43.70;22.60;;;;;;5022788;28;20196;-47
2022/07/25 11:56:12;;;;;;;10.52;9.73;;;43.80;22.40;;;;;;5026297;28;20230;-47
2022/07/25 11:58:38;;;;;;;9.65;9.02;;;43.80;22.40;;;;;;5026266;28;20212;-47
2022/07/25 12:01:11;;;;;;;11.35;10.45;;;43.80;22.20;;;;;;5024069;28;20205;-47
2022/07/25 12:03:37;;;;;;;10.57;9.98;;;43.90;22.60;;;;;;5027119;28;20613;-46
2022/07/25 12:06:11;;;;;;;10.23;9.45;;;43.90;22.20;;;;;;5016701;28;20199;-43
2022/07/25 12:08:41;;;;;;;10.75;9.98;;;44.00;22.30;;;;;;5015017;28;20660;-48
2022/07/25 12:11:20;;;;;;;10.25;9.48;;;44.10;22.20;;;;;;5013884;28;20283;-46
2022/07/25 12:13:46;;;;;;;9.27;8.68;;;44.10;22.00;;;;;;5022248;28;20296;-45
2022/07/25 12:16:12;;;;;;;9.90;9.07;;;44.20;21.60;;;;;;5023344;28;20279;-45
2022/07/25 12:18:37;;;;;;;10.75;9.85;;;44.10;21.40;;;;;;5013987;28;20275;-47
2022/07/25 12:21:04;;;;;;;9.23;8.63;;;44.10;21.30;;;;;;5024403;28;20200;-44
2022/07/25 12:23:29;;;;;;;9.65;8.95;;;44.10;21.70;;;;;;5021333;28;20244;-46
2022/07/25 12:25:55;;;;;;;9.75;9.05;;;44.00;21.50;;;;;;5029587;28;20200;-47
2022/07/25 12:28:21;;;;;;;9.75;9.15;;;43.90;21.50;;;;;;5029359;28;20645;-46
2022/07/25 12:30:47;;;;;;;8.90;8.25;;;43.90;21.70;;;;;;5027492;28;20198;-45